Airfield :
LOGIN :

Register | Disclaimer

   EN    FR    IT 

 










Legend :    VFR   Marginal VFR   IFR   Intensive IFR   Very Intensive IFR
Visi :
Ceiling :
>= 8 km
>= 3000ft
5 to 8 km
1000 to 3000 ft
1500m to 5 km
500 to 1000 ft
800 to 1500m
200 to 500 ft
< 800m
< 200 ft
Symbols :   Thunderstorms  Fog  Heavy snow  Heavy precipitations  Wind > 20 kt
SIGMETs :     Misc.  Thunderstorms  Icing  Turbulence  Mountain Waves  Volcanic Ashes







- Airport Elevation : 37 ft


EHVL - Vlieland Heliport

CURRENT METAR :
  • 290334Z AUTO 04006KT 6000 BR BKN003 BKN110 13/12 Q1015 YLO

EXPIRED METARs :
  • 290325Z AUTO 05006KT 7000 BR SCT110 BKN350 13/12 Q1015 WHT
  • 290312Z AUTO 04007KT 8000 BR BKN350 13/12 Q1015 BLU
  • 290256Z AUTO 03008KT 9000 BR NCD 13/13 Q1015 BLU
  • 290255Z AUTO 03008KT 7000 BR NCD 13/13 Q1015 WHT
  • 290248Z AUTO 03009KT 7000 BR FEW004 SCT100 13/13 Q1015 WHT
  • 290225Z AUTO 02008KT 8000 BR FEW003 BKN100 13/13 Q1016 BLU
  • 290155Z AUTO 01006KT 9000 BR FEW095 BKN120 13/12 Q1016 BLU
  • 290125Z AUTO 36005KT 9999 FEW078 OVC120 14/13 Q1016 BLU
  • 290055Z AUTO 35006KT 9000 BR FEW055 BKN062 BKN073 14/13 Q1016 BLU

Expired Forecast.
No reported NOTAMs for that airfield.
1 SIGMET reported for the Amsterdam FIR (EHAA) :
 
Embedded thunderstorms
EHAA SIGMET 1 VALID 290218/290618 EHDB
EHAA AMSTERDAM FIR EMBD TS OBS WI N5129 E00159 - N5122 E00322 - N5235 E00253 - N5129 E00159 TOP ABV FL400 MOV NNE 20KT NC=



MET'MAP, your aeronautical weather chart ! - Copyright ORBIFLY December 2007 - Disclaimer

ORBIFLY MET'MAP TEAM :

Programming & Development : Alexandra Zaïnal
Concept & Development : Baudouin d'Aumeries
Co-Development & Prog : Marc-Olivier Méhu
Technical & hardware support : Manuel Goepfert

Contact : metmap@orbifly.com




SOURCES & CREDITS :

   NOAA